Weather at Salzburg Airport

Public forecast

Using degrees Celsius for public forecast. Weather courtesy of forecast.io.

Current aviation weather report (METAR) for Salzburg Airport

Report is more than 6 hours old.

2022/11/14 15:20 (retrieved 2 years ago)

LOWS 141520Z 30003KT 9999 FEW090 14/07 Q1017 NOSIG

Aviation forecast (TAF) for Salzburg Airport

Forecast is more than 12 hours old.

2023/02/22 18:21 (retrieved 1 year ago)

TAF LOWS 221715Z 2218/2318 15005KT CAVOK TX10/2313Z TN05/2304Z BECMG 2222/2224 9999 SCT050 BKN080 BECMG 2308/2310 32005KT TEMPO 2310/2318 -RA PROB30 TEMPO 2312/2315 RA BECMG 2316/2318 15005KT